Naven, Sweden

7:14 PM CEST on October 21, 2014 (GMT +0200)
Orslosa, Kallstorp | Change Station
CLOSE
Current Station
Personal Weather Station
Location: Lidkoping, VASTRA GOTALANDS LAN
Elevation: 198 ft
Nearby Weather Stations

Elev 198 ft 58.51 °N, 12.92 °E | Updated 4 minutes ago

Overcast
Overcast
51.6 °F
Feels Like 51.6 °F
N
0.0
Wind Variable Wind from North
Gusts 0.0 mph

Today
High -- | Low -- °F
--% Chance of Precip.
Yesterday
High -- | Low -- °F
Precip. -- in
7:57 AM 5:45 PM
Waning Crescent, 5% visible
Pressure 29.47 in
Visibility 6.2 miles
Clouds Mostly Cloudy 5600 ft
Overcast 6800 ft
Dew Point 48 °F
Humidity 87%
Rainfall 0.00 in
Snow Depth Not available.
UV 0.0 out of 12
Pollen Not available.
Air Quality Not available.
Flu Activity Not available.
METAR ESIB 211650Z AUTO 11009KT 9999NDV BKN056/// OVC068/// 10/08 Q0998

More Conditions Fewer Conditions

Pressure 29.47 in
Visibility 6.2 miles
Clouds Mostly Cloudy 5600 ft
Overcast 6800 ft
Dew Point 48 °F
Humidity 87%
Rainfall 0.00 in
Snow Depth Not available.
UV 0.0 out of 12
Pollen Not available.
Air Quality Not available.
Flu Activity Not available.
METAR ESIB 211650Z AUTO 11009KT 9999NDV BKN056/// OVC068/// 10/08 Q0998

More Conditions Fewer Conditions

10-Day Weather Forecast

Almanac

Astronomy

Oct. 21, 2014 Rise Set
Actual Time 7:57 AM CEST 5:45 PM CEST
Civil Twilight 7:16 AM CEST 6:26 PM CEST
Nautical Twilight 6:29 AM CEST 7:13 PM CEST
Astronomical Twilight 5:43 AM CEST 7:59 PM CEST
Moon 4:53 AM CEST 4:57 PM CEST
Length of Visible Light 11h 10m
Length of Day
9h 48m
Tomorrow will be 5m 2s shorter.
Waning Crescent, 5% of the Moon is Illuminated
Today
Waning Crescent
Oct 23
New
Oct 30
First Quarter
Nov 6
Full
Nov 14
Last Quarter

Today's Extremes

Country Highs Country Lows

Community

WunderPhotos

Upload Photos

1,763,716 photos uploaded!

Nearby

Snow Depth

Not available.

Earthquake Activity

City Distance Mag. Time & Date
No recent earthquake activity has been reported nearby.
Minimum magnitude displayed is 2.5.

Coastal Water Temperatures

Place Temperature
No Stations Reporting

Nearby Weather Stations